createdAt,value
2024-02-03T00:01:28.577Z,5.31
2024-02-03T00:03:56.627Z,5.23
2024-02-03T00:06:23.943Z,5.20
2024-02-03T00:08:51.941Z,5.21
2024-02-03T00:11:19.220Z,5.19
2024-02-03T00:13:46.375Z,5.13
2024-02-03T00:16:13.621Z,5.12
2024-02-03T00:18:40.971Z,5.11
2024-02-03T00:21:08.772Z,5.17
2024-02-03T00:23:35.726Z,5.17
2024-02-03T00:26:02.729Z,5.12
2024-02-03T00:28:29.919Z,5.12
2024-02-03T00:30:56.803Z,5.13
2024-02-03T00:33:23.852Z,5.13
2024-02-03T00:35:51.012Z,5.13
2024-02-03T00:38:18.247Z,5.14
2024-02-03T00:40:45.352Z,5.22
2024-02-03T00:43:15.708Z,5.20
2024-02-03T00:45:46.279Z,5.11
2024-02-03T00:48:13.929Z,5.03
2024-02-03T00:50:41.381Z,4.88
2024-02-03T00:53:08.790Z,4.81
2024-02-03T00:55:36.213Z,4.75
2024-02-03T00:58:03.516Z,4.72
2024-02-03T01:00:30.909Z,4.68
2024-02-03T01:02:58.250Z,4.66
2024-02-03T01:05:25.496Z,4.63
2024-02-03T01:07:53.475Z,4.60
2024-02-03T01:10:21.736Z,4.56
2024-02-03T01:12:48.894Z,4.52
2024-02-03T01:15:16.106Z,4.47
2024-02-03T01:17:43.115Z,4.44
2024-02-03T01:20:10.952Z,4.47
2024-02-03T01:22:37.964Z,4.52
2024-02-03T01:25:05.743Z,4.58
2024-02-03T01:27:32.858Z,4.54
2024-02-03T01:29:59.980Z,4.44
2024-02-03T01:32:27.108Z,4.36
2024-02-03T01:34:54.267Z,4.23
2024-02-03T01:37:21.394Z,4.21
2024-02-03T01:39:48.413Z,4.26
2024-02-03T01:42:15.643Z,4.24
2024-02-03T01:44:43.225Z,4.25
2024-02-03T01:47:11.285Z,4.26
2024-02-03T01:49:38.681Z,4.27
2024-02-03T01:52:07.223Z,4.19
2024-02-03T01:54:35.425Z,4.09
2024-02-03T01:57:03.123Z,4.04
2024-02-03T01:59:32.292Z,4.04
2024-02-03T02:02:02.363Z,4.02
2024-02-03T02:04:30.270Z,3.94
2024-02-03T02:06:58.912Z,3.83
2024-02-03T02:09:27.874Z,3.75
2024-02-03T02:11:56.347Z,3.68
2024-02-03T02:14:25.260Z,3.74
2024-02-03T02:16:53.753Z,3.78
2024-02-03T02:19:20.798Z,3.77
2024-02-03T02:21:47.965Z,3.74
2024-02-03T02:24:16.621Z,3.70
2024-02-03T02:26:44.120Z,3.70
2024-02-03T02:29:11.050Z,3.72
2024-02-03T02:31:38.020Z,3.72
2024-02-03T02:34:05.063Z,3.73
2024-02-03T02:36:32.152Z,3.75
2024-02-03T02:38:59.246Z,3.74
2024-02-03T02:41:26.216Z,3.68
2024-02-03T02:43:53.366Z,3.60
2024-02-03T02:46:26.683Z,3.62
2024-02-03T02:48:54.329Z,3.65
2024-02-03T02:51:21.678Z,3.67
2024-02-03T02:53:48.906Z,3.58
2024-02-03T02:56:16.118Z,3.53
2024-02-03T02:58:43.313Z,3.50
2024-02-03T03:01:10.410Z,3.55
2024-02-03T03:03:37.726Z,3.60
2024-02-03T03:06:05.079Z,3.57
2024-02-03T03:08:32.130Z,3.54
2024-02-03T03:10:59.230Z,3.47
2024-02-03T03:13:26.710Z,3.48
2024-02-03T03:15:54.382Z,3.50
2024-02-03T03:18:21.723Z,3.53
2024-02-03T03:20:48.875Z,3.52
2024-02-03T03:23:15.979Z,3.50
2024-02-03T03:25:44.017Z,3.46
2024-02-03T03:28:10.862Z,3.34
2024-02-03T03:30:38.078Z,3.27
2024-02-03T03:33:05.516Z,3.26
2024-02-03T03:35:32.588Z,3.26
2024-02-03T03:37:59.509Z,3.29
2024-02-03T03:40:26.692Z,3.32
2024-02-03T03:42:53.950Z,3.30
2024-02-03T03:45:21.149Z,3.23
2024-02-03T03:47:48.324Z,3.18
2024-02-03T03:50:15.689Z,3.22
2024-02-03T03:52:42.903Z,3.31
2024-02-03T03:55:10.261Z,3.39
2024-02-03T03:57:37.483Z,3.47
2024-02-03T04:00:10.920Z,3.43
2024-02-03T04:02:38.622Z,3.39
2024-02-03T04:05:09.114Z,3.40
2024-02-03T04:07:36.259Z,3.45
2024-02-03T04:10:03.563Z,3.49
2024-02-03T04:12:30.881Z,3.52
2024-02-03T04:14:58.199Z,3.47
2024-02-03T04:17:25.371Z,3.41
2024-02-03T04:19:52.593Z,3.34
2024-02-03T04:22:20.471Z,3.29
2024-02-03T04:24:47.472Z,3.34
2024-02-03T04:27:14.462Z,3.34
2024-02-03T04:29:42.166Z,3.31
2024-02-03T04:32:09.456Z,3.27
2024-02-03T04:34:36.859Z,3.24
2024-02-03T04:37:04.451Z,3.19
2024-02-03T04:39:31.911Z,3.18
2024-02-03T04:41:59.238Z,3.25
2024-02-03T04:44:26.564Z,3.28
2024-02-03T04:46:53.894Z,3.24
2024-02-03T04:49:21.150Z,3.11
2024-02-03T04:51:48.611Z,3.01
2024-02-03T04:54:15.976Z,3.06
2024-02-03T04:56:43.266Z,3.26
2024-02-03T04:59:10.347Z,3.45
2024-02-03T05:01:37.846Z,3.54
2024-02-03T05:04:04.889Z,3.52
2024-02-03T05:06:32.281Z,3.46
2024-02-03T05:09:01.214Z,3.34
2024-02-03T05:11:28.540Z,3.20
2024-02-03T05:13:55.738Z,3.26
2024-02-03T05:16:22.798Z,3.34
2024-02-03T05:18:50.102Z,3.33
2024-02-03T05:21:17.296Z,3.22
2024-02-03T05:23:44.371Z,3.06
2024-02-03T05:26:11.380Z,2.93
2024-02-03T05:28:39.319Z,2.89
2024-02-03T05:31:06.611Z,2.90
2024-02-03T05:33:35.119Z,2.89
2024-02-03T05:36:02.624Z,2.85
2024-02-03T05:38:29.808Z,2.77
2024-02-03T05:40:57.101Z,2.70
2024-02-03T05:43:24.260Z,2.69
2024-02-03T05:45:51.634Z,2.71
2024-02-03T05:48:19.069Z,2.72
2024-02-03T05:50:46.117Z,2.71
2024-02-03T05:53:13.357Z,2.63
2024-02-03T05:55:40.543Z,2.56
2024-02-03T05:58:07.576Z,2.54
2024-02-03T06:00:34.844Z,2.58
2024-02-03T06:03:02.410Z,2.62
2024-02-03T06:05:29.466Z,2.70
2024-02-03T06:07:56.739Z,2.78
2024-02-03T06:10:24.303Z,2.84
2024-02-03T06:12:51.458Z,2.89
2024-02-03T06:15:18.579Z,2.93
2024-02-03T06:17:46.073Z,3.03
2024-02-03T06:20:13.376Z,3.11
2024-02-03T06:22:40.421Z,3.08
2024-02-03T06:25:07.601Z,2.99
2024-02-03T06:27:34.696Z,2.86
2024-02-03T06:30:01.945Z,2.74
2024-02-03T06:32:29.168Z,2.70
2024-02-03T06:34:56.610Z,2.66
2024-02-03T06:37:24.084Z,2.58
2024-02-03T06:39:51.192Z,2.52
2024-02-03T06:42:18.611Z,2.48
2024-02-03T06:44:47.004Z,2.47
2024-02-03T06:47:14.325Z,2.48
2024-02-03T06:49:41.517Z,2.49
2024-02-03T06:52:08.750Z,2.50
2024-02-03T06:54:35.629Z,2.54
2024-02-03T06:57:02.874Z,2.51
2024-02-03T06:59:30.271Z,2.53
2024-02-03T07:01:57.485Z,2.87
2024-02-03T07:04:24.656Z,3.92
2024-02-03T07:06:51.868Z,4.90
2024-02-03T07:09:19.019Z,6.01
2024-02-03T07:11:56.676Z,7.08
2024-02-03T07:14:31.032Z,8.29
2024-02-03T07:16:58.860Z,9.43
2024-02-03T07:19:26.256Z,10.44
2024-02-03T07:21:53.874Z,11.30
2024-02-03T07:24:21.363Z,12.16
2024-02-03T07:26:48.537Z,12.96
2024-02-03T07:29:16.207Z,13.74
2024-02-03T07:31:43.664Z,14.70
2024-02-03T07:34:11.335Z,15.35
2024-02-03T07:36:39.043Z,15.94
2024-02-03T07:39:06.538Z,16.41
2024-02-03T07:41:34.874Z,16.84
2024-02-03T07:44:02.017Z,17.33
2024-02-03T07:46:29.250Z,17.85
2024-02-03T07:48:56.962Z,18.23
2024-02-03T07:51:24.123Z,18.61
2024-02-03T07:53:51.742Z,19.02
2024-02-03T07:56:19.275Z,19.24
2024-02-03T07:58:46.881Z,19.74
2024-02-03T08:01:14.703Z,20.06
2024-02-03T08:03:42.007Z,20.53
2024-02-03T08:06:10.041Z,21.07
2024-02-03T08:08:37.619Z,21.12
2024-02-03T08:11:04.942Z,21.31
2024-02-03T08:13:32.173Z,21.64
2024-02-03T08:16:00.281Z,21.97
2024-02-03T08:18:31.896Z,22.41
2024-02-03T08:20:59.101Z,22.91
2024-02-03T08:23:26.413Z,23.52
2024-02-03T08:25:53.440Z,23.80
2024-02-03T08:28:21.682Z,24.08
2024-02-03T08:30:49.116Z,24.57
2024-02-03T08:33:17.428Z,24.85
2024-02-03T08:35:45.171Z,25.41
2024-02-03T08:38:13.261Z,25.84
2024-02-03T08:40:40.984Z,26.25
2024-02-03T08:43:08.339Z,26.56
2024-02-03T08:45:35.779Z,26.90
2024-02-03T08:48:03.767Z,27.23
2024-02-03T08:50:31.016Z,27.53
2024-02-03T08:52:58.972Z,27.88
2024-02-03T08:55:26.297Z,28.41
2024-02-03T08:57:53.803Z,29.01
2024-02-03T09:00:22.939Z,29.18
2024-02-03T09:02:51.157Z,29.52
2024-02-03T09:05:20.396Z,29.50
2024-02-03T09:07:48.627Z,29.56
2024-02-03T09:10:15.641Z,29.93
2024-02-03T09:12:43.169Z,30.61
2024-02-03T09:15:10.490Z,30.92
2024-02-03T09:17:37.954Z,30.95
2024-02-03T09:20:05.614Z,31.27
2024-02-03T09:22:33.790Z,31.53
2024-02-03T09:25:01.495Z,31.61
2024-02-03T09:27:29.911Z,31.86
2024-02-03T09:29:57.058Z,32.12
2024-02-03T09:32:27.650Z,32.21
2024-02-03T09:34:55.615Z,32.38
2024-02-03T09:39:54.082Z,32.51
2024-02-03T09:42:21.386Z,33.03
2024-02-03T09:44:49.884Z,33.34
2024-02-03T09:47:19.160Z,33.62
2024-02-03T09:49:48.800Z,33.81
2024-02-03T09:52:18.333Z,34.13
2024-02-03T09:54:49.432Z,34.38
2024-02-03T09:57:16.809Z,34.59
2024-02-03T09:59:50.511Z,34.96
2024-02-03T10:02:18.805Z,35.17
2024-02-03T10:04:46.589Z,35.41
2024-02-03T10:07:18.994Z,35.63
2024-02-03T10:12:21.877Z,36.08
2024-02-03T10:15:06.454Z,35.91
2024-02-03T10:17:34.480Z,35.59
2024-02-03T10:20:01.687Z,35.76
2024-02-03T10:22:28.996Z,35.66
2024-02-03T10:25:07.072Z,35.70
2024-02-03T10:27:34.133Z,35.64
2024-02-03T10:30:02.079Z,35.67
2024-02-03T10:32:29.410Z,35.78
2024-02-03T10:34:57.703Z,35.75
2024-02-03T10:37:24.925Z,36.13
2024-02-03T10:39:52.823Z,36.06
2024-02-03T10:42:22.112Z,36.38
2024-02-03T10:44:50.441Z,36.44
2024-02-03T10:47:22.546Z,37.05
2024-02-03T10:49:51.172Z,37.43
2024-02-03T10:52:20.980Z,37.63
2024-02-03T10:54:54.620Z,37.93
2024-02-03T10:57:23.042Z,37.87
2024-02-03T10:59:50.180Z,38.22
2024-02-03T11:02:21.602Z,38.44
2024-02-03T11:04:49.581Z,38.76
2024-02-03T11:07:25.319Z,39.04
2024-02-03T11:09:57.482Z,39.23
2024-02-03T11:12:33.162Z,39.48
2024-02-03T11:15:00.301Z,39.59
2024-02-03T11:17:32.421Z,39.70
2024-02-03T11:20:04.229Z,39.71
2024-02-03T11:22:31.499Z,39.83
2024-02-03T11:25:02.286Z,40.00
2024-02-03T11:27:29.457Z,40.06
2024-02-03T11:30:06.821Z,40.05
2024-02-03T11:32:33.744Z,40.26
2024-02-03T11:35:04.832Z,40.23
2024-02-03T11:37:31.962Z,40.26
2024-02-03T11:40:07.805Z,40.58
2024-02-03T11:42:36.085Z,40.46
2024-02-03T11:45:23.869Z,40.09
2024-02-03T11:47:51.589Z,40.52
2024-02-03T11:50:19.638Z,40.67
2024-02-03T11:52:47.231Z,40.89
2024-02-03T11:55:14.905Z,40.92
2024-02-03T11:57:43.098Z,40.78
2024-02-03T12:00:11.338Z,40.79
2024-02-03T12:02:38.705Z,41.06
2024-02-03T12:05:07.303Z,41.06
2024-02-03T12:07:35.437Z,41.08
2024-02-03T12:10:04.288Z,41.18
2024-02-03T12:12:34.290Z,41.22
2024-02-03T12:15:02.829Z,41.13
2024-02-03T12:17:30.151Z,41.29
2024-02-03T12:19:58.848Z,41.45
2024-02-03T12:22:26.135Z,41.35
2024-02-03T12:24:53.427Z,41.26
2024-02-03T12:27:24.007Z,41.14
2024-02-03T12:29:51.754Z,40.92
2024-02-03T12:32:18.936Z,40.84
2024-02-03T12:34:46.230Z,40.77
2024-02-03T12:37:13.750Z,40.69
2024-02-03T12:39:41.202Z,40.68
2024-02-03T12:42:09.764Z,40.83
2024-02-03T12:44:36.889Z,40.83
2024-02-03T12:47:04.902Z,40.74
2024-02-03T12:49:32.482Z,40.90
2024-02-03T12:52:00.357Z,40.99
2024-02-03T12:54:27.997Z,40.77
2024-02-03T12:56:55.713Z,40.58
2024-02-03T12:59:23.737Z,40.29
2024-02-03T13:01:51.238Z,40.06
2024-02-03T13:04:18.494Z,40.05
2024-02-03T13:06:46.043Z,40.12
2024-02-03T13:09:13.425Z,39.90
2024-02-03T13:11:40.632Z,39.80
2024-02-03T13:14:08.135Z,39.71
2024-02-03T13:16:35.391Z,39.64
2024-02-03T13:19:02.697Z,39.73
2024-02-03T13:21:29.965Z,39.70
2024-02-03T13:23:57.223Z,39.78
2024-02-03T13:26:24.751Z,39.74
2024-02-03T13:28:51.878Z,39.57
2024-02-03T13:31:24.159Z,39.48
2024-02-03T13:33:51.432Z,39.33
2024-02-03T13:36:19.455Z,39.28
2024-02-03T13:38:46.774Z,39.16
2024-02-03T13:41:14.108Z,38.87
2024-02-03T13:43:41.091Z,38.57
2024-02-03T13:46:08.520Z,38.43
2024-02-03T13:48:36.132Z,38.34
2024-02-03T13:51:04.015Z,38.30
2024-02-03T13:53:31.671Z,38.28
2024-02-03T13:56:01.960Z,38.22
2024-02-03T13:58:29.821Z,38.04
2024-02-03T14:00:57.120Z,38.19
2024-02-03T14:03:24.329Z,38.06
2024-02-03T14:05:51.968Z,37.76
2024-02-03T14:08:20.867Z,37.59
2024-02-03T14:10:49.672Z,37.51
2024-02-03T14:13:16.782Z,37.54
2024-02-03T14:15:44.610Z,37.49
2024-02-03T14:18:12.022Z,37.22
2024-02-03T14:20:39.374Z,36.97
2024-02-03T14:23:06.613Z,36.73
2024-02-03T14:25:35.774Z,36.62
2024-02-03T14:28:04.904Z,35.96
2024-02-03T14:30:32.024Z,35.53
2024-02-03T14:35:28.772Z,35.30
2024-02-03T14:37:56.894Z,35.22
2024-02-03T14:40:24.343Z,35.09
2024-02-03T14:42:52.304Z,34.84
2024-02-03T14:45:19.474Z,34.64
2024-02-03T14:47:46.787Z,34.46
2024-02-03T14:50:13.993Z,34.19
2024-02-03T14:52:41.210Z,33.82
2024-02-03T14:55:09.190Z,33.65
2024-02-03T14:57:36.397Z,33.24
2024-02-03T15:00:05.067Z,32.78
2024-02-03T15:02:36.068Z,32.51
2024-02-03T15:05:06.056Z,32.46
2024-02-03T15:07:33.915Z,32.30
2024-02-03T15:10:02.328Z,32.31
2024-02-03T15:12:34.208Z,32.11
2024-02-03T15:15:01.689Z,31.88
2024-02-03T15:17:29.125Z,31.69
2024-02-03T15:19:56.243Z,31.20
2024-02-03T15:22:23.562Z,30.80
2024-02-03T15:24:50.646Z,30.43
2024-02-03T15:27:21.080Z,30.16
2024-02-03T15:29:48.216Z,29.74
2024-02-03T15:32:17.928Z,29.59
2024-02-03T15:34:45.768Z,29.46
2024-02-03T15:37:13.412Z,29.38
2024-02-03T15:39:40.758Z,29.16
2024-02-03T15:42:07.812Z,28.77
2024-02-03T15:44:41.498Z,28.31
2024-02-03T15:47:13.293Z,27.81
2024-02-03T15:49:40.344Z,27.53
2024-02-03T15:52:07.448Z,27.32
2024-02-03T15:54:34.541Z,27.16
2024-02-03T15:57:01.912Z,26.97
2024-02-03T15:59:29.291Z,26.64
2024-02-03T16:01:56.409Z,26.34
2024-02-03T16:04:24.107Z,25.93
2024-02-03T16:06:51.914Z,25.61
2024-02-03T16:09:20.347Z,25.17
2024-02-03T16:11:48.296Z,24.59
2024-02-03T16:14:15.628Z,23.95
2024-02-03T16:16:43.244Z,23.38
2024-02-03T16:19:11.205Z,22.87
2024-02-03T16:21:38.533Z,22.31
2024-02-03T16:24:06.109Z,21.79
2024-02-03T16:29:00.393Z,20.95
2024-02-03T16:31:27.904Z,20.53
2024-02-03T16:33:55.514Z,20.12
2024-02-03T16:36:22.825Z,19.74
2024-02-03T16:38:49.977Z,19.38
2024-02-03T16:41:19.665Z,19.09
2024-02-03T16:43:47.009Z,18.78
2024-02-03T16:46:14.480Z,18.43
2024-02-03T16:48:41.814Z,18.19
2024-02-03T16:51:09.952Z,17.93
2024-02-03T16:53:37.217Z,17.72
2024-02-03T16:56:05.281Z,17.49
2024-02-03T16:58:32.722Z,17.12
2024-02-03T17:01:00.159Z,16.85
2024-02-03T17:03:27.502Z,16.73
2024-02-03T17:05:55.711Z,16.56
2024-02-03T17:08:23.089Z,16.44
2024-02-03T17:10:50.371Z,16.29
2024-02-03T17:13:17.994Z,16.10
2024-02-03T17:15:45.556Z,15.92
2024-02-03T17:18:13.039Z,15.76
2024-02-03T17:20:40.699Z,15.60
2024-02-03T17:23:08.707Z,15.39
2024-02-03T17:25:36.315Z,15.24
2024-02-03T17:28:04.909Z,15.10
2024-02-03T17:30:32.375Z,14.77
2024-02-03T17:32:59.519Z,14.54
2024-02-03T17:35:27.845Z,14.49
2024-02-03T17:37:55.057Z,14.44
2024-02-03T17:40:22.412Z,14.40
2024-02-03T17:42:51.005Z,14.34
2024-02-03T17:45:19.175Z,14.26
2024-02-03T17:47:47.822Z,14.19
2024-02-03T17:50:19.098Z,14.09
2024-02-03T17:52:47.533Z,13.97
2024-02-03T17:55:16.551Z,13.93
2024-02-03T17:57:46.537Z,13.88
2024-02-03T18:00:15.099Z,13.74
2024-02-03T18:02:44.292Z,13.66
2024-02-03T18:05:12.626Z,13.60
2024-02-03T18:07:42.226Z,13.53
2024-02-03T18:10:12.188Z,13.40
2024-02-03T18:12:42.448Z,13.25
2024-02-03T18:15:11.299Z,13.15
2024-02-03T18:17:39.284Z,13.06
2024-02-03T18:20:09.911Z,13.00
2024-02-03T18:22:37.404Z,12.84
2024-02-03T18:25:06.045Z,12.76
2024-02-03T18:27:34.335Z,12.75
2024-02-03T18:30:02.058Z,12.65
2024-02-03T18:32:30.726Z,12.55
2024-02-03T18:34:58.413Z,12.47
2024-02-03T18:37:26.482Z,12.45
2024-02-03T18:39:54.509Z,12.37
2024-02-03T18:42:23.965Z,12.29
2024-02-03T18:44:51.672Z,12.23
2024-02-03T18:47:19.561Z,12.21
2024-02-03T18:49:47.660Z,12.22
2024-02-03T18:52:15.598Z,12.21
2024-02-03T18:54:45.124Z,12.16
2024-02-03T18:57:14.388Z,11.93
2024-02-03T18:59:42.536Z,11.70
2024-02-03T19:02:10.591Z,11.56
2024-02-03T19:04:38.282Z,11.42
2024-02-03T19:07:07.263Z,11.28
2024-02-03T19:09:38.597Z,11.23
2024-02-03T19:12:10.236Z,11.17
2024-02-03T19:14:38.236Z,11.09
2024-02-03T19:17:06.607Z,11.06
2024-02-03T19:19:37.278Z,11.04
2024-02-03T19:22:06.456Z,11.10
2024-02-03T19:24:35.758Z,11.19
2024-02-03T19:27:04.204Z,11.24
2024-02-03T19:29:32.217Z,11.24
2024-02-03T19:32:00.047Z,11.16
2024-02-03T19:34:33.101Z,10.97
2024-02-03T19:37:01.863Z,10.78
2024-02-03T19:39:30.476Z,10.58
2024-02-03T19:41:58.284Z,10.38
2024-02-03T19:44:26.885Z,10.19
2024-02-03T19:46:57.171Z,10.17
2024-02-03T19:49:25.233Z,10.14
2024-02-03T19:51:53.283Z,10.22
2024-02-03T19:54:20.836Z,10.27
2024-02-03T19:56:48.323Z,10.29
2024-02-03T19:59:17.760Z,10.23
2024-02-03T20:01:45.670Z,9.90
2024-02-03T20:04:14.178Z,9.54
2024-02-03T20:06:41.754Z,9.33
2024-02-03T20:09:10.055Z,9.27
2024-02-03T20:11:38.241Z,9.23
2024-02-03T20:14:06.504Z,9.18
2024-02-03T20:16:34.484Z,9.12
2024-02-03T20:19:01.996Z,9.09
2024-02-03T20:21:29.354Z,9.01
2024-02-03T20:23:57.647Z,8.85
2024-02-03T20:26:25.951Z,8.72
2024-02-03T20:28:54.798Z,8.55
2024-02-03T20:31:22.639Z,8.35
2024-02-03T20:33:50.657Z,8.15
2024-02-03T20:36:17.908Z,8.08
2024-02-03T20:38:45.418Z,8.08
2024-02-03T20:41:20.422Z,8.09
2024-02-03T20:43:48.157Z,8.09
2024-02-03T20:46:16.206Z,8.09
2024-02-03T20:48:44.360Z,8.08
2024-02-03T20:51:12.494Z,8.12
2024-02-03T20:53:40.871Z,8.11
2024-02-03T20:56:09.376Z,8.16
2024-02-03T20:58:38.652Z,8.24
2024-02-03T21:01:06.332Z,8.27
2024-02-03T21:03:34.220Z,8.25
2024-02-03T21:06:02.001Z,8.24
2024-02-03T21:08:30.867Z,8.24
2024-02-03T21:10:59.856Z,8.27
2024-02-03T21:13:27.627Z,8.30
2024-02-03T21:15:55.656Z,8.29
2024-02-03T21:18:25.397Z,8.17
2024-02-03T21:20:53.651Z,7.95
2024-02-03T21:23:22.005Z,7.72
2024-02-03T21:25:50.515Z,7.58
2024-02-03T21:28:18.853Z,7.40
2024-02-03T21:30:47.615Z,7.33
2024-02-03T21:33:15.436Z,7.19
2024-02-03T21:35:43.025Z,7.11
2024-02-03T21:38:10.576Z,7.09
2024-02-03T21:40:41.679Z,7.09
2024-02-03T21:43:09.975Z,7.16
2024-02-03T21:45:37.785Z,7.17
2024-02-03T21:48:06.767Z,7.19
2024-02-03T21:50:34.514Z,7.17
2024-02-03T21:53:02.722Z,7.30
2024-02-03T21:55:30.645Z,7.27
2024-02-03T21:57:58.386Z,7.08
2024-02-03T22:00:26.965Z,7.06
2024-02-03T22:02:54.714Z,7.03
2024-02-03T22:05:22.670Z,7.00
2024-02-03T22:07:52.336Z,6.95
2024-02-03T22:10:20.588Z,6.97
2024-02-03T22:12:50.110Z,6.75
2024-02-03T22:15:18.698Z,6.62
2024-02-03T22:17:46.187Z,6.36
2024-02-03T22:20:14.398Z,6.27
2024-02-03T22:22:42.184Z,6.23
2024-02-03T22:25:10.120Z,6.27
2024-02-03T22:27:40.036Z,6.42
2024-02-03T22:30:11.221Z,6.59
2024-02-03T22:32:39.557Z,6.78
2024-02-03T22:35:07.637Z,6.86
2024-02-03T22:37:36.876Z,6.84
2024-02-03T22:40:05.543Z,6.62
2024-02-03T22:42:33.384Z,6.48
2024-02-03T22:45:01.098Z,6.35
2024-02-03T22:47:28.550Z,6.30
2024-02-03T22:49:57.373Z,6.21
2024-02-03T22:52:26.245Z,6.14
2024-02-03T22:54:54.428Z,6.09
2024-02-03T22:57:22.179Z,6.10
2024-02-03T22:59:50.342Z,6.01
2024-02-03T23:02:18.435Z,6.02
2024-02-03T23:04:46.016Z,6.05
2024-02-03T23:07:13.472Z,5.99
2024-02-03T23:09:41.092Z,5.96
2024-02-03T23:12:11.536Z,6.01
2024-02-03T23:14:39.240Z,6.10
2024-02-03T23:17:06.589Z,6.21
2024-02-03T23:19:33.931Z,6.27
2024-02-03T23:22:02.250Z,6.32
2024-02-03T23:24:30.052Z,6.35
2024-02-03T23:26:57.792Z,6.38
2024-02-03T23:29:25.165Z,6.39
2024-02-03T23:31:52.312Z,6.45
2024-02-03T23:34:20.740Z,6.32
2024-02-03T23:36:48.529Z,6.13
2024-02-03T23:39:17.069Z,6.05
2024-02-03T23:41:44.921Z,6.00
2024-02-03T23:44:12.724Z,5.94
2024-02-03T23:46:39.788Z,5.90
2024-02-03T23:49:06.780Z,5.85
2024-02-03T23:51:34.477Z,5.75
2024-02-03T23:54:02.951Z,5.73
2024-02-03T23:56:30.267Z,5.77
2024-02-03T23:58:57.448Z,5.67
